createdAt,value
2017-11-26T00:00:09.715Z,-0.50
2017-11-26T00:02:42.242Z,-0.50
2017-11-26T00:05:14.796Z,-0.50
2017-11-26T00:07:48.085Z,-0.50
2017-11-26T00:10:20.634Z,-0.50
2017-11-26T00:12:53.158Z,-0.50
2017-11-26T00:15:25.702Z,-0.50
2017-11-26T00:17:58.226Z,-0.50
2017-11-26T00:20:31.538Z,-0.50
2017-11-26T00:23:04.822Z,-0.50
2017-11-26T00:25:37.361Z,-0.50
2017-11-26T00:28:10.644Z,-0.50
2017-11-26T00:30:43.195Z,-0.50
2017-11-26T00:33:15.727Z,-0.50
2017-11-26T00:35:48.266Z,-0.50
2017-11-26T00:38:20.783Z,-0.50
2017-11-26T00:40:54.090Z,-0.50
2017-11-26T00:43:26.615Z,-0.50
2017-11-26T00:45:59.922Z,-0.40
2017-11-26T00:48:33.261Z,-0.50
2017-11-26T00:51:06.570Z,-0.50
2017-11-26T00:53:39.859Z,-0.50
2017-11-26T00:56:12.403Z,-0.50
2017-11-26T00:58:45.702Z,-0.50
2017-11-26T01:01:18.254Z,-0.50
2017-11-26T01:03:50.779Z,-0.50
2017-11-26T01:06:23.340Z,-0.40
2017-11-26T01:08:55.868Z,-0.50
2017-11-26T01:11:28.430Z,-0.50
2017-11-26T01:14:01.707Z,-0.50
2017-11-26T01:16:34.241Z,-0.50
2017-11-26T01:19:07.535Z,-0.40
2017-11-26T01:21:40.078Z,-0.40
2017-11-26T01:24:12.602Z,-0.40
2017-11-26T01:26:45.156Z,-0.50
2017-11-26T01:29:17.694Z,-0.50
2017-11-26T01:31:50.238Z,-0.50
2017-11-26T01:34:22.750Z,-0.50
2017-11-26T01:36:55.319Z,-0.50
2017-11-26T01:39:27.838Z,-0.50
2017-11-26T01:42:00.380Z,-0.50
2017-11-26T01:44:33.662Z,-0.40
2017-11-26T01:47:06.215Z,-0.40
2017-11-26T01:49:38.746Z,-0.40
2017-11-26T01:52:11.295Z,-0.40
2017-11-26T01:54:43.823Z,-0.40
2017-11-26T01:57:16.366Z,-0.30
2017-11-26T01:59:48.887Z,-0.30
2017-11-26T02:02:21.438Z,-0.20
2017-11-26T02:04:53.965Z,-0.20
2017-11-26T02:07:26.515Z,-0.10
2017-11-26T02:09:59.806Z,0.00
2017-11-26T02:12:32.380Z,0.00
2017-11-26T02:15:04.904Z,0.00
2017-11-26T02:17:37.445Z,0.00
2017-11-26T02:20:09.981Z,0.00
2017-11-26T02:22:42.522Z,0.00
2017-11-26T02:25:15.036Z,0.10
2017-11-26T02:27:48.347Z,0.20
2017-11-26T02:30:21.643Z,0.20
2017-11-26T02:33:06.767Z,0.20
2017-11-26T02:49:19.243Z,0.40
2017-11-26T02:51:51.850Z,0.40
2017-11-26T02:54:24.440Z,0.50
2017-11-26T02:56:57.039Z,0.50
2017-11-26T02:59:30.509Z,0.70
2017-11-26T03:02:04.882Z,0.60
2017-11-26T03:04:37.502Z,0.70
2017-11-26T03:07:10.045Z,0.60
2017-11-26T03:09:42.698Z,0.70
2017-11-26T03:12:15.232Z,0.70
2017-11-26T03:14:47.836Z,0.70
2017-11-26T03:17:21.227Z,0.80
2017-11-26T03:19:53.883Z,0.70
2017-11-26T03:22:26.469Z,0.80
2017-11-26T03:25:00.178Z,0.90
2017-11-26T03:27:34.155Z,0.80
2017-11-26T03:30:06.809Z,0.90
2017-11-26T03:32:39.404Z,0.90
2017-11-26T03:35:12.032Z,0.90
2017-11-26T03:37:45.343Z,1.00
2017-11-26T03:40:17.918Z,0.90
2017-11-26T03:42:50.454Z,1.00
2017-11-26T03:45:23.012Z,1.10
2017-11-26T03:47:55.586Z,1.00
2017-11-26T03:50:28.136Z,1.00
2017-11-26T03:53:00.749Z,1.00
2017-11-26T03:55:34.864Z,1.10
2017-11-26T03:58:07.402Z,1.10
2017-11-26T04:00:40.085Z,1.10
2017-11-26T04:03:12.647Z,1.10
2017-11-26T04:05:45.206Z,1.10
2017-11-26T04:08:18.632Z,1.10
2017-11-26T04:10:51.184Z,1.10
2017-11-26T04:13:24.480Z,1.10
2017-11-26T04:15:57.817Z,1.10
2017-11-26T04:18:30.400Z,1.10
2017-11-26T04:21:04.150Z,1.00
2017-11-26T04:23:37.484Z,1.00
2017-11-26T04:26:10.036Z,1.00
2017-11-26T04:28:42.567Z,1.00
2017-11-26T04:31:15.114Z,1.00
2017-11-26T04:33:47.642Z,1.00
2017-11-26T04:36:21.134Z,1.00
2017-11-26T04:38:54.454Z,1.10
2017-11-26T04:41:27.102Z,1.00
2017-11-26T04:44:00.404Z,1.10
2017-11-26T04:46:33.759Z,1.10
2017-11-26T04:49:06.299Z,1.10
2017-11-26T04:51:38.882Z,1.10
2017-11-26T04:54:11.412Z,1.10
2017-11-26T04:56:43.984Z,1.10
2017-11-26T04:59:20.439Z,1.10
2017-11-26T05:01:52.983Z,1.20
2017-11-26T05:04:25.594Z,1.20
2017-11-26T05:06:59.037Z,1.30
2017-11-26T05:09:35.361Z,1.30
2017-11-26T05:12:07.938Z,1.30
2017-11-26T05:14:40.478Z,1.30
2017-11-26T05:17:13.037Z,1.30
2017-11-26T05:19:45.569Z,1.20
2017-11-26T05:22:18.133Z,1.30
2017-11-26T05:24:50.661Z,1.30
2017-11-26T05:27:23.217Z,1.30
2017-11-26T05:29:56.534Z,1.30
2017-11-26T05:32:29.087Z,1.30
2017-11-26T05:35:04.056Z,1.40
2017-11-26T05:37:36.605Z,1.30
2017-11-26T05:40:09.915Z,1.30
2017-11-26T05:42:42.453Z,1.30
2017-11-26T05:45:15.005Z,1.30
2017-11-26T05:47:47.581Z,1.30
2017-11-26T05:50:20.112Z,1.30
2017-11-26T05:52:52.675Z,1.30
2017-11-26T05:55:25.963Z,1.40
2017-11-26T05:57:59.306Z,1.40
2017-11-26T06:00:31.834Z,1.40
2017-11-26T06:03:05.161Z,1.40
2017-11-26T06:05:37.758Z,1.40
2017-11-26T06:08:10.312Z,1.40
2017-11-26T06:10:42.836Z,1.40
2017-11-26T06:13:15.391Z,1.40
2017-11-26T06:15:48.016Z,1.40
2017-11-26T06:18:21.370Z,1.50
2017-11-26T06:20:53.911Z,1.50
2017-11-26T06:23:26.484Z,1.50
2017-11-26T06:25:59.015Z,1.50
2017-11-26T06:28:31.611Z,1.50
2017-11-26T06:31:05.991Z,1.50
2017-11-26T06:33:38.559Z,1.50
2017-11-26T06:36:11.089Z,1.50
2017-11-26T06:38:44.409Z,1.50
2017-11-26T06:41:16.964Z,1.50
2017-11-26T06:43:50.320Z,1.60
2017-11-26T06:46:22.848Z,1.50
2017-11-26T06:48:55.403Z,1.60
2017-11-26T06:51:28.698Z,1.60
2017-11-26T06:54:02.061Z,1.70
2017-11-26T06:56:36.313Z,1.70
2017-11-26T06:59:08.885Z,1.70
2017-11-26T07:01:42.173Z,1.70
2017-11-26T07:04:15.499Z,1.80
2017-11-26T07:06:48.029Z,1.80
2017-11-26T07:09:20.588Z,1.80
2017-11-26T07:11:53.119Z,1.80
2017-11-26T07:14:25.670Z,1.80
2017-11-26T07:16:58.971Z,1.80
2017-11-26T07:19:32.301Z,1.80
2017-11-26T07:22:04.837Z,1.80
2017-11-26T07:24:38.151Z,1.90
2017-11-26T07:27:10.679Z,1.90
2017-11-26T07:29:43.255Z,1.90
2017-11-26T07:32:15.781Z,1.90
2017-11-26T07:34:48.328Z,1.90
2017-11-26T07:37:21.652Z,1.90
2017-11-26T07:39:54.202Z,1.90
2017-11-26T07:42:32.375Z,2.00
2017-11-26T07:45:07.014Z,2.00
2017-11-26T07:47:40.328Z,2.00
2017-11-26T07:50:13.659Z,2.00
2017-11-26T07:52:46.180Z,2.00
2017-11-26T07:55:18.818Z,2.10
2017-11-26T07:57:52.309Z,2.20
2017-11-26T08:00:24.921Z,2.10
2017-11-26T08:02:57.483Z,2.20
2017-11-26T08:05:30.030Z,2.20
2017-11-26T08:08:03.055Z,2.20
2017-11-26T08:10:35.689Z,2.20
2017-11-26T08:13:08.228Z,2.20
2017-11-26T08:15:40.924Z,2.30
2017-11-26T08:18:13.477Z,2.30
2017-11-26T08:20:46.199Z,2.30
2017-11-26T08:23:18.752Z,2.30
2017-11-26T08:25:52.088Z,2.40
2017-11-26T08:28:24.689Z,2.40
2017-11-26T08:30:58.067Z,2.40
2017-11-26T08:33:30.761Z,2.40
2017-11-26T08:36:05.160Z,2.40
2017-11-26T08:38:37.840Z,2.40
2017-11-26T08:41:10.423Z,2.50
2017-11-26T08:43:43.021Z,2.50
2017-11-26T08:46:15.651Z,2.60
2017-11-26T08:48:48.201Z,2.60
2017-11-26T08:51:21.558Z,2.60
2017-11-26T08:53:54.214Z,2.60
2017-11-26T08:56:26.876Z,2.60
2017-11-26T08:58:59.464Z,2.60
2017-11-26T09:01:32.063Z,2.70
2017-11-26T09:04:05.781Z,2.60
2017-11-26T09:06:56.280Z,2.60
2017-11-26T09:09:29.057Z,2.60
2017-11-26T09:12:01.680Z,2.60
2017-11-26T09:14:37.078Z,2.60
2017-11-26T09:17:09.641Z,2.60
2017-11-26T09:19:42.196Z,2.70
2017-11-26T09:22:14.812Z,2.70
2017-11-26T09:24:47.373Z,2.70
2017-11-26T09:27:19.963Z,2.70
2017-11-26T09:29:52.503Z,2.70
2017-11-26T09:32:25.097Z,2.80
2017-11-26T09:34:57.707Z,2.90
2017-11-26T09:37:30.353Z,2.90
2017-11-26T09:40:05.033Z,3.00
2017-11-26T09:42:37.709Z,2.90
2017-11-26T09:45:11.158Z,3.00
2017-11-26T09:47:44.513Z,3.00
2017-11-26T09:50:17.063Z,3.00
2017-11-26T09:52:49.633Z,3.00
2017-11-26T09:55:22.177Z,3.00
2017-11-26T09:57:54.758Z,3.00
2017-11-26T10:00:27.329Z,3.00
2017-11-26T10:02:59.879Z,3.00
2017-11-26T10:05:34.022Z,3.00
2017-11-26T10:08:07.661Z,3.00
2017-11-26T10:10:41.041Z,3.00
2017-11-26T10:13:13.644Z,3.00
2017-11-26T10:15:46.214Z,3.00
2017-11-26T10:18:19.517Z,3.00
2017-11-26T10:20:52.830Z,3.00
2017-11-26T10:23:25.371Z,3.00
2017-11-26T10:25:57.975Z,3.00
2017-11-26T10:28:30.550Z,3.10
2017-11-26T10:31:03.789Z,3.10
2017-11-26T10:33:36.368Z,3.10
2017-11-26T10:36:08.906Z,3.20
2017-11-26T10:38:41.462Z,3.20
2017-11-26T10:41:14.751Z,3.30
2017-11-26T10:43:48.127Z,3.30
2017-11-26T10:46:20.705Z,3.30
2017-11-26T10:48:53.314Z,3.30
2017-11-26T10:51:25.893Z,3.30
2017-11-26T10:53:58.471Z,3.30
2017-11-26T10:56:31.019Z,3.30
2017-11-26T10:59:05.414Z,3.30
2017-11-26T11:01:37.955Z,3.30
2017-11-26T11:04:10.507Z,3.30
2017-11-26T11:06:43.801Z,3.30
2017-11-26T11:09:17.126Z,3.30
2017-11-26T11:11:49.646Z,3.30
2017-11-26T11:14:22.283Z,3.40
2017-11-26T11:16:55.629Z,3.40
2017-11-26T11:19:28.989Z,3.40
2017-11-26T11:22:01.600Z,3.40
2017-11-26T11:24:34.992Z,3.50
2017-11-26T11:27:08.300Z,3.40
2017-11-26T11:29:40.876Z,3.40
2017-11-26T11:32:13.466Z,3.40
2017-11-26T11:34:46.405Z,3.40
2017-11-26T11:37:18.978Z,3.40
2017-11-26T11:39:51.554Z,3.40
2017-11-26T11:42:24.067Z,3.40
2017-11-26T11:44:57.389Z,3.50
2017-11-26T11:47:30.023Z,3.50
2017-11-26T11:50:03.407Z,3.50
2017-11-26T11:52:35.946Z,3.50
2017-11-26T11:55:08.558Z,3.50
2017-11-26T11:57:41.087Z,3.50
2017-11-26T12:00:13.779Z,3.50
2017-11-26T12:02:46.352Z,3.50
2017-11-26T12:05:19.067Z,3.50
2017-11-26T12:07:51.610Z,3.50
2017-11-26T12:10:24.216Z,3.50
2017-11-26T12:12:57.525Z,3.50
2017-11-26T12:15:30.080Z,3.50
2017-11-26T12:18:02.917Z,3.50
2017-11-26T12:20:35.560Z,3.60
2017-11-26T12:23:08.858Z,3.60
2017-11-26T12:25:41.407Z,3.60
2017-11-26T12:28:13.951Z,3.60
2017-11-26T12:30:46.499Z,3.60
2017-11-26T12:33:19.867Z,3.70
2017-11-26T12:35:52.543Z,3.70
2017-11-26T12:38:25.886Z,3.70
2017-11-26T12:40:58.516Z,3.70
2017-11-26T12:43:32.044Z,3.80
2017-11-26T12:46:05.103Z,3.70
2017-11-26T12:48:37.663Z,3.70
2017-11-26T12:51:10.221Z,3.70
2017-11-26T12:53:42.742Z,3.70
2017-11-26T12:56:15.473Z,3.70
2017-11-26T13:13:24.729Z,3.60
2017-11-26T13:46:53.896Z,3.70
2017-11-26T13:49:26.428Z,3.70
2017-11-26T13:51:58.934Z,3.70
2017-11-26T13:54:31.460Z,3.70
2017-11-26T13:57:03.976Z,3.70
2017-11-26T13:59:36.497Z,3.70
2017-11-26T14:02:09.778Z,3.70
2017-11-26T14:04:42.310Z,3.70
2017-11-26T14:07:14.821Z,3.70
2017-11-26T14:09:47.346Z,3.60
2017-11-26T14:12:20.614Z,3.70
2017-11-26T14:14:53.936Z,3.80
2017-11-26T14:17:26.442Z,3.70
2017-11-26T14:19:58.969Z,3.80
2017-11-26T14:22:31.479Z,3.70
2017-11-26T14:25:04.622Z,3.70
2017-11-26T14:27:37.129Z,3.70
2017-11-26T14:30:09.662Z,3.70
2017-11-26T14:32:42.167Z,3.70
2017-11-26T14:35:14.710Z,3.70
2017-11-26T14:37:47.245Z,3.70
2017-11-26T14:40:19.782Z,3.70
2017-11-26T14:42:53.138Z,3.70
2017-11-26T14:45:25.668Z,3.70
2017-11-26T14:47:58.178Z,3.70
2017-11-26T14:50:30.706Z,3.70
2017-11-26T14:53:03.790Z,3.70
2017-11-26T14:55:36.329Z,3.70
2017-11-26T14:58:08.851Z,3.70
2017-11-26T15:00:41.378Z,3.70
2017-11-26T15:03:13.883Z,3.70
2017-11-26T15:05:46.412Z,3.70
2017-11-26T15:08:19.705Z,3.70
2017-11-26T15:10:52.243Z,3.60
2017-11-26T15:13:25.569Z,3.70
2017-11-26T15:15:58.852Z,3.60
2017-11-26T15:18:31.382Z,3.60
2017-11-26T15:21:04.675Z,3.60
2017-11-26T15:23:37.178Z,3.60
2017-11-26T15:26:09.768Z,3.60
2017-11-26T15:28:42.271Z,3.70
2017-11-26T15:31:14.810Z,3.60
2017-11-26T15:33:48.077Z,3.70
2017-11-26T15:36:20.663Z,3.70
2017-11-26T15:38:53.174Z,3.70
2017-11-26T15:41:25.948Z,3.70
2017-11-26T15:43:58.475Z,3.70
2017-11-26T15:46:31.009Z,3.70
2017-11-26T15:49:03.511Z,3.70
2017-11-26T15:51:36.079Z,3.70
2017-11-26T15:54:08.589Z,3.70
2017-11-26T15:56:41.106Z,3.70
2017-11-26T15:59:14.379Z,3.60
2017-11-26T16:01:46.912Z,3.60
2017-11-26T16:04:19.422Z,3.60
2017-11-26T16:06:51.979Z,3.60
2017-11-26T16:09:24.487Z,3.70
2017-11-26T16:11:57.029Z,3.70
2017-11-26T16:14:29.550Z,3.70
2017-11-26T16:17:02.082Z,3.70
2017-11-26T16:19:35.378Z,3.70
2017-11-26T16:22:07.903Z,3.70
2017-11-26T16:24:41.180Z,3.70
2017-11-26T16:27:13.703Z,3.70
2017-11-26T16:29:46.214Z,3.70
2017-11-26T16:32:18.770Z,3.80
2017-11-26T16:34:51.274Z,3.80
2017-11-26T16:37:23.801Z,3.80
2017-11-26T16:39:56.309Z,3.80
2017-11-26T16:42:28.835Z,3.80
2017-11-26T16:45:02.119Z,3.70
2017-11-26T16:47:34.648Z,3.70
2017-11-26T16:50:07.160Z,3.70
2017-11-26T16:52:39.748Z,3.70
2017-11-26T16:55:12.302Z,3.70
2017-11-26T16:57:44.895Z,3.70
2017-11-26T17:00:17.468Z,3.70
2017-11-26T17:02:50.049Z,3.70
2017-11-26T17:05:22.616Z,3.70
2017-11-26T17:07:55.147Z,3.70
2017-11-26T17:10:27.733Z,3.70
2017-11-26T17:13:00.271Z,3.70
2017-11-26T17:15:32.771Z,3.70
2017-11-26T17:18:05.300Z,3.70
2017-11-26T17:20:38.575Z,3.70
2017-11-26T17:23:11.102Z,3.70
2017-11-26T17:25:43.626Z,3.70
2017-11-26T17:28:16.157Z,3.70
2017-11-26T17:30:48.674Z,3.70
2017-11-26T17:33:21.190Z,3.70
2017-11-26T17:35:53.754Z,3.70
2017-11-26T17:38:26.294Z,3.70
2017-11-26T17:40:59.287Z,3.70
2017-11-26T17:43:31.846Z,3.70
2017-11-26T17:46:04.380Z,3.70
2017-11-26T17:48:36.910Z,3.70
2017-11-26T17:51:10.922Z,3.60
2017-11-26T17:53:44.222Z,3.70
2017-11-26T17:56:16.742Z,3.70
2017-11-26T17:58:49.442Z,3.70
2017-11-26T18:01:21.986Z,3.70
2017-11-26T18:03:55.275Z,3.70
2017-11-26T18:06:27.793Z,3.70
2017-11-26T18:09:00.330Z,3.70
2017-11-26T18:11:33.862Z,3.70
2017-11-26T18:14:06.423Z,3.70
2017-11-26T18:16:38.927Z,3.70
2017-11-26T18:19:11.449Z,3.70
2017-11-26T18:21:43.963Z,3.70
2017-11-26T18:24:16.492Z,3.70
2017-11-26T18:26:49.770Z,3.70
2017-11-26T18:29:23.059Z,3.70
2017-11-26T18:31:55.587Z,3.70
2017-11-26T18:34:28.116Z,3.70
2017-11-26T18:37:00.638Z,3.70
2017-11-26T18:39:33.935Z,3.70
2017-11-26T18:42:07.210Z,3.70
2017-11-26T18:44:39.743Z,3.70
2017-11-26T18:47:12.242Z,3.70
2017-11-26T18:49:44.766Z,3.70
2017-11-26T18:52:17.275Z,3.70
2017-11-26T18:54:49.798Z,3.80
2017-11-26T18:57:22.302Z,3.70
2017-11-26T18:59:54.910Z,3.60
2017-11-26T19:02:27.427Z,3.70
2017-11-26T19:04:59.946Z,3.70
2017-11-26T19:07:32.484Z,3.70
2017-11-26T19:10:05.134Z,3.70
2017-11-26T19:12:38.735Z,3.70
2017-11-26T19:15:11.271Z,3.60
2017-11-26T19:17:43.770Z,3.60
2017-11-26T19:20:16.292Z,3.60
2017-11-26T19:22:49.625Z,3.70
2017-11-26T19:25:22.197Z,3.70
2017-11-26T19:27:54.706Z,3.70
2017-11-26T19:30:27.242Z,3.70
2017-11-26T19:32:59.750Z,3.70
2017-11-26T19:35:32.270Z,3.70
2017-11-26T19:38:05.691Z,3.60
2017-11-26T19:40:38.982Z,3.60
2017-11-26T19:43:11.488Z,3.70
2017-11-26T19:45:44.010Z,3.70
2017-11-26T19:48:16.523Z,3.60
2017-11-26T19:50:49.822Z,3.60
2017-11-26T19:53:22.346Z,3.60
2017-11-26T19:55:54.890Z,3.60
2017-11-26T19:58:27.838Z,3.60
2017-11-26T20:01:00.376Z,3.60
2017-11-26T20:03:34.267Z,3.60
2017-11-26T20:06:06.827Z,3.60
2017-11-26T20:08:39.345Z,3.70
2017-11-26T20:11:11.890Z,3.70
2017-11-26T20:13:44.406Z,3.70
2017-11-26T20:16:16.955Z,3.70
2017-11-26T20:18:49.470Z,3.60
2017-11-26T20:21:22.119Z,3.70
2017-11-26T20:23:54.702Z,3.70
2017-11-26T20:26:27.260Z,3.70
2017-11-26T20:28:59.823Z,3.70
2017-11-26T20:31:32.374Z,3.60
2017-11-26T20:34:05.878Z,3.60
2017-11-26T20:36:38.414Z,3.60
2017-11-26T20:39:10.930Z,3.60
2017-11-26T20:41:44.218Z,3.60
2017-11-26T20:44:17.503Z,3.60
2017-11-26T20:46:50.098Z,3.60
2017-11-26T20:49:22.603Z,3.60
2017-11-26T20:51:55.135Z,3.60
2017-11-26T20:54:27.660Z,3.60
2017-11-26T20:57:00.198Z,3.60
2017-11-26T20:59:34.195Z,3.60
2017-11-26T21:02:06.718Z,3.60
2017-11-26T21:04:39.232Z,3.50
2017-11-26T21:07:12.530Z,3.50
2017-11-26T21:09:45.798Z,3.50
2017-11-26T21:12:19.097Z,3.50
2017-11-26T21:14:52.384Z,3.50
2017-11-26T21:17:25.695Z,3.40
2017-11-26T21:19:58.210Z,3.40
2017-11-26T21:22:31.498Z,3.40
2017-11-26T21:25:04.300Z,3.40
2017-11-26T21:27:37.674Z,3.40
2017-11-26T21:30:10.946Z,3.40
2017-11-26T21:32:44.247Z,3.40
2017-11-26T21:35:16.872Z,3.40
2017-11-26T21:37:49.398Z,3.40
2017-11-26T21:40:21.913Z,3.40
2017-11-26T21:42:55.446Z,3.40
2017-11-26T21:45:27.984Z,3.40
2017-11-26T21:48:00.518Z,3.40
2017-11-26T21:50:34.943Z,3.30
2017-11-26T21:53:08.236Z,3.30
2017-11-26T21:55:40.733Z,3.30
2017-11-26T21:58:13.300Z,3.30
2017-11-26T22:00:45.811Z,3.30
2017-11-26T22:03:19.241Z,3.40
2017-11-26T22:05:51.767Z,3.30
2017-11-26T22:08:24.294Z,3.30
2017-11-26T22:10:56.808Z,3.30
2017-11-26T22:13:29.342Z,3.30
2017-11-26T22:16:02.624Z,3.20
2017-11-26T22:18:35.170Z,3.20
2017-11-26T22:21:07.687Z,3.20
2017-11-26T22:23:40.218Z,3.20
2017-11-26T22:26:13.488Z,3.20
2017-11-26T22:28:46.779Z,3.20
2017-11-26T22:31:20.416Z,3.20
2017-11-26T22:33:53.457Z,3.10
2017-11-26T22:36:26.273Z,3.10
2017-11-26T22:38:58.812Z,3.10
2017-11-26T22:41:31.318Z,3.20
2017-11-26T22:44:04.663Z,3.10
2017-11-26T22:46:37.185Z,3.10
2017-11-26T22:49:09.963Z,3.20
2017-11-26T22:51:43.257Z,3.10
2017-11-26T22:54:15.795Z,3.10
2017-11-26T22:56:49.120Z,3.10
2017-11-26T22:59:21.641Z,3.00
2017-11-26T23:01:54.940Z,3.00
2017-11-26T23:04:28.242Z,3.00
2017-11-26T23:07:00.755Z,3.00
2017-11-26T23:09:33.818Z,3.00
2017-11-26T23:12:06.326Z,3.00
2017-11-26T23:14:38.879Z,2.90
2017-11-26T23:17:11.386Z,2.90
2017-11-26T23:19:43.914Z,2.90
2017-11-26T23:22:16.420Z,2.90
2017-11-26T23:24:48.947Z,2.90
2017-11-26T23:27:22.238Z,2.90
2017-11-26T23:29:54.769Z,2.90
2017-11-26T23:32:27.278Z,2.90
2017-11-26T23:34:59.813Z,2.90
2017-11-26T23:37:32.318Z,2.90
2017-11-26T23:40:05.566Z,2.80
2017-11-26T23:42:38.532Z,2.80
2017-11-26T23:45:11.471Z,2.80
2017-11-26T23:47:44.440Z,2.70
2017-11-26T23:50:18.367Z,2.70
2017-11-26T23:52:50.889Z,2.70
2017-11-26T23:55:24.275Z,2.60
2017-11-26T23:57:57.202Z,2.60
